createdAt,value
2022-08-15T00:01:44.010Z,7.88
2022-08-15T00:04:34.273Z,6.27
2022-08-15T00:06:59.674Z,8.25
2022-08-15T00:09:55.552Z,6.50
2022-08-15T00:12:33.767Z,5.60
2022-08-15T00:15:10.319Z,7.18
2022-08-15T00:17:46.299Z,6.10
2022-08-15T00:20:20.571Z,6.97
2022-08-15T00:22:51.845Z,6.65
2022-08-15T00:25:19.669Z,7.05
2022-08-15T00:27:54.997Z,6.35
2022-08-15T00:30:24.753Z,7.20
2022-08-15T00:33:18.886Z,6.38
2022-08-15T00:35:55.950Z,7.22
2022-08-15T00:38:39.758Z,7.95
2022-08-15T00:41:37.038Z,7.22
2022-08-15T00:44:11.128Z,7.72
2022-08-15T00:46:51.836Z,7.95
2022-08-15T00:49:20.906Z,10.23
2022-08-15T00:52:26.806Z,6.97
2022-08-15T00:55:07.369Z,7.60
2022-08-15T00:58:00.720Z,7.50
2022-08-15T01:00:38.106Z,6.65
2022-08-15T01:03:20.206Z,7.47
2022-08-15T01:05:52.756Z,7.80
2022-08-15T01:08:30.228Z,7.82
2022-08-15T01:11:23.143Z,10.25
2022-08-15T01:14:04.213Z,6.60
2022-08-15T01:16:36.901Z,7.78
2022-08-15T01:19:20.380Z,7.18
2022-08-15T01:22:22.885Z,6.78
2022-08-15T01:25:27.741Z,7.00
2022-08-15T01:28:16.293Z,7.22
2022-08-15T01:31:02.646Z,7.03
2022-08-15T01:33:39.977Z,6.63
2022-08-15T01:36:32.938Z,7.72
2022-08-15T01:39:17.682Z,7.22
2022-08-15T01:42:01.009Z,6.80
2022-08-15T01:44:49.414Z,7.53
2022-08-15T01:47:39.394Z,7.97
2022-08-15T01:53:25.319Z,6.05
2022-08-15T01:55:56.900Z,6.82
2022-08-15T01:58:25.612Z,7.07
2022-08-15T02:01:01.843Z,8.38
2022-08-15T02:03:48.597Z,9.52
2022-08-15T02:06:25.855Z,7.68
2022-08-15T02:09:03.241Z,7.63
2022-08-15T02:12:00.500Z,8.13
2022-08-15T02:14:38.878Z,7.82
2022-08-15T02:17:07.401Z,8.27
2022-08-15T02:19:41.531Z,9.73
2022-08-15T02:22:24.953Z,8.10
2022-08-15T02:24:55.184Z,8.80
2022-08-15T02:27:24.118Z,8.10
2022-08-15T02:29:53.904Z,8.55
2022-08-15T02:32:30.498Z,8.25
2022-08-15T02:35:02.858Z,8.15
2022-08-15T02:37:31.414Z,7.80
2022-08-15T02:40:45.746Z,8.23
2022-08-15T02:42:56.575Z,7.95
2022-08-15T02:45:23.557Z,8.10
2022-08-15T02:47:50.389Z,7.90
2022-08-15T02:50:18.923Z,8.75
2022-08-15T02:52:53.642Z,8.73
2022-08-15T02:55:22.152Z,8.52
2022-08-15T02:57:59.317Z,8.52
2022-08-15T03:00:30.517Z,8.63
2022-08-15T03:03:07.771Z,8.93
2022-08-15T03:05:37.829Z,9.10
2022-08-15T03:08:06.736Z,9.10
2022-08-15T03:10:40.034Z,9.35
2022-08-15T03:13:16.777Z,9.32
2022-08-15T03:15:57.712Z,9.32
2022-08-15T03:18:33.204Z,8.95
2022-08-15T03:21:03.830Z,9.95
2022-08-15T03:23:41.920Z,9.60
2022-08-15T03:26:25.772Z,10.10
2022-08-15T03:29:01.283Z,9.02
2022-08-15T03:31:41.665Z,9.43
2022-08-15T03:34:15.486Z,8.63
2022-08-15T03:36:52.434Z,9.32
2022-08-15T03:39:21.337Z,9.48
2022-08-15T03:41:54.969Z,9.75
2022-08-15T03:44:27.208Z,9.05
2022-08-15T03:46:56.629Z,9.23
2022-08-15T03:50:22.713Z,9.68
2022-08-15T03:52:12.008Z,9.60
2022-08-15T03:54:39.293Z,9.75
2022-08-15T03:57:09.946Z,9.23
2022-08-15T03:59:40.231Z,9.60
2022-08-15T04:02:11.901Z,9.98
2022-08-15T04:04:59.247Z,10.82
2022-08-15T04:07:40.412Z,9.23
2022-08-15T04:10:37.145Z,9.05
2022-08-15T04:13:03.585Z,8.73
2022-08-15T04:15:31.054Z,8.60
2022-08-15T04:18:00.820Z,9.20
2022-08-15T04:20:33.095Z,8.50
2022-08-15T04:23:02.345Z,8.82
2022-08-15T04:25:53.699Z,8.98
2022-08-15T04:28:39.109Z,9.60
2022-08-15T04:31:20.321Z,8.82
2022-08-15T04:34:45.122Z,10.18
2022-08-15T04:36:37.791Z,8.57
2022-08-15T04:39:04.999Z,8.65
2022-08-15T04:41:36.954Z,8.65
2022-08-15T04:44:17.109Z,9.02
2022-08-15T04:46:44.533Z,9.77
2022-08-15T04:49:11.557Z,10.13
2022-08-15T04:51:38.436Z,9.77
2022-08-15T04:54:06.733Z,9.90
2022-08-15T04:56:48.274Z,9.30
2022-08-15T04:59:36.084Z,9.50
2022-08-15T05:02:55.230Z,10.20
2022-08-15T05:04:55.656Z,10.25
2022-08-15T05:07:27.695Z,9.88
2022-08-15T05:10:00.555Z,9.27
2022-08-15T05:12:38.082Z,8.65
2022-08-15T05:15:07.603Z,9.40
2022-08-15T05:17:54.931Z,8.70
2022-08-15T05:20:24.097Z,9.23
2022-08-15T05:23:07.054Z,9.07
2022-08-15T05:25:41.847Z,9.40
2022-08-15T05:28:31.608Z,8.32
2022-08-15T05:31:05.783Z,9.05
2022-08-15T05:33:58.080Z,9.10
2022-08-15T05:36:27.633Z,10.10
2022-08-15T05:39:01.185Z,9.25
2022-08-15T05:41:33.772Z,9.38
2022-08-15T05:44:38.841Z,9.38
2022-08-15T05:47:34.637Z,9.40
2022-08-15T05:50:15.404Z,9.43
2022-08-15T05:53:06.546Z,9.65
2022-08-15T05:55:49.885Z,8.95
2022-08-15T06:01:38.526Z,9.65
2022-08-15T06:04:38.946Z,9.13
2022-08-15T06:07:15.635Z,8.98
2022-08-15T06:09:58.990Z,9.40
2022-08-15T06:12:41.001Z,12.93
2022-08-15T06:15:21.277Z,9.07
2022-08-15T06:18:01.645Z,9.13
2022-08-15T06:20:52.423Z,9.68
2022-08-15T06:23:38.116Z,10.25
2022-08-15T06:26:40.661Z,9.60
2022-08-15T06:30:09.542Z,10.60
2022-08-15T06:32:47.372Z,12.23
2022-08-15T06:36:13.862Z,9.70
2022-08-15T06:39:10.673Z,10.57
2022-08-15T06:42:06.168Z,10.15
2022-08-15T06:44:43.567Z,9.05
2022-08-15T06:47:14.414Z,10.65
2022-08-15T06:49:54.209Z,8.93
2022-08-15T06:52:25.445Z,10.38
2022-08-15T06:54:55.787Z,9.57
2022-08-15T06:57:38.870Z,8.35
2022-08-15T07:00:45.367Z,11.07
2022-08-15T07:04:03.912Z,8.98
2022-08-15T07:06:55.405Z,8.80
2022-08-15T07:09:54.162Z,8.80
2022-08-15T07:12:58.155Z,8.00
2022-08-15T07:15:55.117Z,8.25
2022-08-15T07:18:50.797Z,8.18
2022-08-15T07:21:23.197Z,8.45
2022-08-15T07:24:35.301Z,8.30
2022-08-15T07:27:07.011Z,7.28
2022-08-15T07:29:55.581Z,7.88
2022-08-15T07:32:42.555Z,8.52
2022-08-15T07:35:16.143Z,8.20
2022-08-15T07:38:25.293Z,8.20
2022-08-15T07:40:56.333Z,8.15
2022-08-15T07:43:34.929Z,7.70
2022-08-15T07:46:23.278Z,7.32
2022-08-15T07:49:11.221Z,7.95
2022-08-15T07:51:49.458Z,8.32
2022-08-15T07:54:34.736Z,7.28
2022-08-15T08:00:44.812Z,8.30
2022-08-15T08:07:03.821Z,7.57
2022-08-15T08:09:57.736Z,6.32
2022-08-15T08:12:30.941Z,6.88
2022-08-15T08:15:37.308Z,6.40
2022-08-15T08:18:31.430Z,8.02
2022-08-15T08:21:12.302Z,7.47
2022-08-15T08:23:50.690Z,7.07
2022-08-15T08:26:49.614Z,7.43
2022-08-15T08:29:46.337Z,7.00
2022-08-15T08:32:35.610Z,6.45
2022-08-15T08:35:45.393Z,8.63
2022-08-15T08:39:04.161Z,7.25
2022-08-15T08:41:56.099Z,6.15
2022-08-15T08:44:52.343Z,6.95
2022-08-15T08:48:20.997Z,6.55
2022-08-15T08:51:16.251Z,6.38
2022-08-15T08:54:09.057Z,7.38
2022-08-15T08:56:45.524Z,6.97
2022-08-15T08:59:50.747Z,7.18
2022-08-15T09:02:50.964Z,8.35
2022-08-15T09:05:46.966Z,7.47
2022-08-15T09:08:42.550Z,8.00
2022-08-15T09:11:33.493Z,7.38
2022-08-15T09:18:49.504Z,7.63
2022-08-15T09:43:49.046Z,7.38
2022-08-15T09:50:50.405Z,7.05
2022-08-15T11:26:53.453Z,8.18
2022-08-15T12:10:02.307Z,6.32
2022-08-15T12:12:43.837Z,7.38
2022-08-15T12:15:23.737Z,6.93
2022-08-15T12:18:50.061Z,6.82
2022-08-15T12:21:19.891Z,6.20
2022-08-15T12:23:56.754Z,6.97
2022-08-15T12:26:39.815Z,6.63
2022-08-15T12:29:18.786Z,6.55
2022-08-15T12:31:50.306Z,7.10
2022-08-15T12:34:30.240Z,6.80
2022-08-15T12:37:11.750Z,7.00
2022-08-15T12:40:57.988Z,7.57
2022-08-15T12:42:59.424Z,6.90
2022-08-15T12:45:36.272Z,6.32
2022-08-15T12:48:26.918Z,6.72
2022-08-15T12:51:03.404Z,7.80
2022-08-15T12:53:31.539Z,6.72
2022-08-15T12:55:59.386Z,6.82
2022-08-15T12:58:27.200Z,7.35
2022-08-15T13:01:13.195Z,6.75
2022-08-15T13:04:00.911Z,6.20
2022-08-15T13:09:28.637Z,5.78
2022-08-15T13:11:57.887Z,6.53
2022-08-15T13:14:25.247Z,6.95
2022-08-15T13:17:08.877Z,7.15
2022-08-15T13:20:04.915Z,6.88
2022-08-15T13:22:53.973Z,6.40
2022-08-15T13:25:23.298Z,6.53
2022-08-15T13:27:51.246Z,7.07
2022-08-15T13:30:21.409Z,7.28
2022-08-15T13:32:51.495Z,6.97
2022-08-15T13:35:20.750Z,6.00
2022-08-15T13:37:58.853Z,6.40
2022-08-15T13:40:29.028Z,6.93
2022-08-15T13:43:03.545Z,6.38
2022-08-15T13:45:57.409Z,5.63
2022-08-15T13:48:39.078Z,5.60
2022-08-15T13:51:20.730Z,5.82
2022-08-15T13:54:33.406Z,6.15
2022-08-15T13:56:55.273Z,6.00
2022-08-15T13:59:23.871Z,5.43
2022-08-15T14:01:52.684Z,6.10
2022-08-15T14:04:33.501Z,5.68
2022-08-15T14:07:03.185Z,5.43
2022-08-15T14:10:02.491Z,5.35
2022-08-15T14:12:19.380Z,6.30
2022-08-15T14:14:47.029Z,7.32
2022-08-15T14:17:37.026Z,6.10
2022-08-15T14:20:26.451Z,6.82
2022-08-15T14:22:57.835Z,6.47
2022-08-15T14:27:08.589Z,6.00
2022-08-15T14:36:40.728Z,5.32
2022-08-15T14:39:13.455Z,5.70
2022-08-15T14:41:43.313Z,6.38
2022-08-15T14:44:46.728Z,5.97
2022-08-15T14:47:02.351Z,6.25
2022-08-15T14:50:53.331Z,5.80
2022-08-15T14:52:24.878Z,6.00
2022-08-15T14:54:55.670Z,5.63
2022-08-15T14:57:26.318Z,5.88
2022-08-15T14:59:58.014Z,6.38
2022-08-15T15:02:35.851Z,6.25
2022-08-15T15:05:08.675Z,6.07
2022-08-15T15:07:59.865Z,6.72
2022-08-15T15:10:29.801Z,6.10
2022-08-15T15:13:13.447Z,6.43
2022-08-15T15:16:07.135Z,5.95
2022-08-15T15:18:45.679Z,6.30
2022-08-15T15:21:21.333Z,6.95
2022-08-15T15:23:51.668Z,6.75
2022-08-15T15:26:37.498Z,6.38
2022-08-15T15:29:06.759Z,6.50
2022-08-15T15:31:34.462Z,6.80
2022-08-15T15:34:15.094Z,8.30
2022-08-15T15:36:46.959Z,6.35
2022-08-15T15:39:45.599Z,6.82
2022-08-15T15:42:17.511Z,5.55
2022-08-15T15:44:48.861Z,6.07
2022-08-15T15:47:24.915Z,6.88
2022-08-15T15:49:53.072Z,7.32
2022-08-15T15:52:32.324Z,8.23
2022-08-15T15:55:05.526Z,6.95
2022-08-15T15:57:42.593Z,6.03
2022-08-15T16:00:28.107Z,7.20
2022-08-15T16:03:02.027Z,6.18
2022-08-15T16:06:02.410Z,6.68
2022-08-15T16:08:32.409Z,6.57
2022-08-15T16:11:42.481Z,6.05
2022-08-15T16:14:28.355Z,6.03
2022-08-15T16:17:11.563Z,6.03
2022-08-15T16:20:43.985Z,6.78
2022-08-15T16:23:47.083Z,8.43
2022-08-15T16:27:13.553Z,7.13
2022-08-15T16:29:54.619Z,17.52
2022-08-15T16:32:34.794Z,8.00
2022-08-15T16:35:31.145Z,10.27
2022-08-15T16:39:03.010Z,5.88
2022-08-15T16:41:19.266Z,7.75
2022-08-15T16:43:54.389Z,4.32
2022-08-15T16:46:56.705Z,5.18
2022-08-15T16:50:06.278Z,5.32
2022-08-15T16:53:18.990Z,4.38
2022-08-15T16:56:20.814Z,7.90
2022-08-15T16:59:40.162Z,10.25
2022-08-15T17:03:03.621Z,7.55
2022-08-15T17:06:00.477Z,6.97
2022-08-15T17:08:46.015Z,10.55
2022-08-15T17:11:22.215Z,7.85
2022-08-15T17:14:47.953Z,9.63
2022-08-15T17:17:33.550Z,6.13
2022-08-15T17:20:21.046Z,11.05
2022-08-15T17:23:14.145Z,5.97
2022-08-15T17:26:00.135Z,12.13
2022-08-15T17:28:55.188Z,7.13
2022-08-15T17:31:26.827Z,6.13
2022-08-15T17:34:37.615Z,6.05
2022-08-15T17:37:05.456Z,6.32
2022-08-15T17:39:53.864Z,7.00
2022-08-15T17:42:26.460Z,5.25
2022-08-15T17:45:21.358Z,9.88
2022-08-15T17:47:57.102Z,8.82
2022-08-15T17:50:59.287Z,7.72
2022-08-15T17:54:01.429Z,5.93
2022-08-15T17:56:51.528Z,5.82
2022-08-15T17:59:38.519Z,7.03
2022-08-15T18:02:31.674Z,7.28
2022-08-15T18:05:01.876Z,7.03
2022-08-15T18:07:33.544Z,7.18
2022-08-15T18:10:30.971Z,7.78
2022-08-15T18:13:04.116Z,7.95
2022-08-15T18:15:33.524Z,8.77
2022-08-15T18:18:21.396Z,8.43
2022-08-15T18:20:59.391Z,7.60
2022-08-15T18:23:53.994Z,6.82
2022-08-15T18:26:52.530Z,5.93
2022-08-15T18:29:22.932Z,8.13
2022-08-15T18:32:25.087Z,6.13
2022-08-15T18:35:05.494Z,5.93
2022-08-15T18:37:39.368Z,5.85
2022-08-15T18:40:52.370Z,6.10
2022-08-15T18:43:25.125Z,5.97
2022-08-15T18:45:53.078Z,6.10
2022-08-15T18:48:35.192Z,6.72
2022-08-15T18:51:17.688Z,6.50
2022-08-15T18:54:47.566Z,5.93
2022-08-15T18:57:43.087Z,5.95
2022-08-15T19:00:16.638Z,6.25
2022-08-15T19:02:49.891Z,6.85
2022-08-15T19:05:19.762Z,6.40
2022-08-15T19:08:02.510Z,6.53
2022-08-15T19:10:57.198Z,6.90
2022-08-15T19:13:43.266Z,7.00
2022-08-15T19:16:29.271Z,6.72
2022-08-15T19:19:34.170Z,6.82
2022-08-15T19:22:01.468Z,5.32
2022-08-15T19:24:32.204Z,6.57
2022-08-15T19:27:42.697Z,7.72
2022-08-15T19:30:19.301Z,6.38
2022-08-15T19:33:38.829Z,6.20
2022-08-15T19:36:48.370Z,7.68
2022-08-15T19:39:52.060Z,7.03
2022-08-15T19:42:58.022Z,7.30
2022-08-15T19:45:47.930Z,8.45
2022-08-15T19:48:33.731Z,9.27
2022-08-15T19:51:54.514Z,7.10
2022-08-15T19:55:38.166Z,6.93
2022-08-15T19:58:28.973Z,8.15
2022-08-15T20:01:01.564Z,7.22
2022-08-15T20:03:46.849Z,6.25
2022-08-15T20:06:47.622Z,6.60
2022-08-15T20:09:40.270Z,6.80
2022-08-15T20:12:26.567Z,6.70
2022-08-15T20:15:30.347Z,7.72
2022-08-15T20:18:29.244Z,6.50
2022-08-15T20:21:22.418Z,5.97
2022-08-15T20:24:36.889Z,7.40
2022-08-15T20:27:18.224Z,8.05
2022-08-15T20:30:19.985Z,6.55
2022-08-15T20:33:01.914Z,6.65
2022-08-15T20:35:45.937Z,7.15
2022-08-15T20:38:48.024Z,9.38
2022-08-15T20:41:30.884Z,7.82
2022-08-15T20:44:31.341Z,7.72
2022-08-15T20:46:59.423Z,7.65
2022-08-15T20:49:34.128Z,6.95
2022-08-15T20:52:41.215Z,6.80
2022-08-15T20:54:56.484Z,7.25
2022-08-15T20:57:40.188Z,6.78
2022-08-15T21:01:13.135Z,6.55
2022-08-15T21:04:02.522Z,6.75
2022-08-15T21:06:20.216Z,6.32
2022-08-15T21:09:28.429Z,7.00
2022-08-15T21:12:25.467Z,7.07
2022-08-15T21:16:06.083Z,7.50
2022-08-15T21:18:47.021Z,6.80
2022-08-15T21:21:19.469Z,7.50
2022-08-15T21:24:05.608Z,7.75
2022-08-15T21:26:42.041Z,6.53
2022-08-15T21:29:24.805Z,7.20
2022-08-15T21:31:58.464Z,6.95
2022-08-15T21:34:36.096Z,6.80
2022-08-15T21:37:12.607Z,7.18
2022-08-15T21:40:02.270Z,7.43
2022-08-15T21:42:29.280Z,7.28
2022-08-15T21:45:01.934Z,8.18
2022-08-15T21:47:48.416Z,7.75
2022-08-15T21:50:49.519Z,7.88
2022-08-15T21:53:35.649Z,7.05
2022-08-15T21:56:25.945Z,9.40
2022-08-15T22:00:21.674Z,7.55
2022-08-15T22:02:50.386Z,8.05
2022-08-15T22:05:31.786Z,9.00
2022-08-15T22:08:13.576Z,8.57
2022-08-15T22:10:50.865Z,9.43
2022-08-15T22:13:18.818Z,8.77
2022-08-15T22:15:46.934Z,8.77
2022-08-15T22:18:28.791Z,10.10
2022-08-15T22:21:02.515Z,9.57
2022-08-15T22:23:34.514Z,9.85
2022-08-15T22:26:37.655Z,10.98
2022-08-15T22:29:19.242Z,9.18
2022-08-15T22:31:56.397Z,8.90
2022-08-15T22:34:35.137Z,10.75
2022-08-15T22:37:02.259Z,10.40
2022-08-15T22:39:41.873Z,10.57
2022-08-15T22:42:18.037Z,10.38
2022-08-15T22:44:48.540Z,10.90
2022-08-15T22:47:20.808Z,10.20
2022-08-15T22:49:54.868Z,11.32
2022-08-15T22:52:25.632Z,10.18
2022-08-15T22:54:52.859Z,9.88
2022-08-15T22:57:58.213Z,10.38
2022-08-15T23:00:18.831Z,9.43
2022-08-15T23:02:49.758Z,10.25
2022-08-15T23:05:25.384Z,10.02
2022-08-15T23:08:14.370Z,10.35
2022-08-15T23:10:58.482Z,10.13
2022-08-15T23:13:59.350Z,10.27
2022-08-15T23:16:44.303Z,9.88
2022-08-15T23:19:41.959Z,9.50
2022-08-15T23:22:32.420Z,9.40
2022-08-15T23:25:02.874Z,9.18
2022-08-15T23:27:35.550Z,9.30
2022-08-15T23:30:30.656Z,9.25
2022-08-15T23:33:04.820Z,8.82
2022-08-15T23:35:35.549Z,9.18
2022-08-15T23:38:17.653Z,9.80
2022-08-15T23:40:56.787Z,8.98
2022-08-15T23:43:24.425Z,9.15
2022-08-15T23:45:54.212Z,9.32
2022-08-15T23:48:29.586Z,9.13
2022-08-15T23:51:03.654Z,8.93
2022-08-15T23:53:32.262Z,9.27
2022-08-15T23:56:31.796Z,9.18
2022-08-15T23:58:53.329Z,8.60
